createdAt,value
2018-07-06T00:01:45.139Z,98085.53
2018-07-06T00:04:24.926Z,98084.62
2018-07-06T00:07:04.725Z,98076.42
2018-07-06T00:09:44.694Z,98073.91
2018-07-06T00:12:24.685Z,98076.30
2018-07-06T00:15:04.624Z,98082.34
2018-07-06T00:17:44.289Z,98078.92
2018-07-06T00:20:23.996Z,98073.24
2018-07-06T00:23:03.716Z,98075.52
2018-07-06T00:25:43.599Z,98073.10
2018-07-06T00:28:23.542Z,98071.84
2018-07-06T00:31:03.270Z,98070.83
2018-07-06T00:33:43.170Z,98070.83
2018-07-06T00:36:22.689Z,98072.75
2018-07-06T00:39:02.440Z,98071.84
2018-07-06T00:41:42.140Z,98075.84
2018-07-06T00:44:21.985Z,98073.34
2018-07-06T00:47:02.135Z,98071.42
2018-07-06T00:49:41.904Z,98076.40
2018-07-06T00:52:21.985Z,98073.00
2018-07-06T00:55:01.794Z,98077.31
2018-07-06T00:57:56.099Z,98074.71
2018-07-06T01:00:35.622Z,98078.70
2018-07-06T01:03:15.298Z,98078.00
2018-07-06T01:05:55.205Z,98086.45
2018-07-06T01:08:34.880Z,98088.16
2018-07-06T01:11:14.886Z,98088.02
2018-07-06T01:13:54.768Z,98087.33
2018-07-06T01:16:34.425Z,98085.75
2018-07-06T01:19:14.186Z,98083.82
2018-07-06T01:21:54.325Z,98091.42
2018-07-06T01:24:34.175Z,98091.20
2018-07-06T01:27:14.019Z,98090.41
2018-07-06T01:29:53.829Z,98088.69
2018-07-06T01:32:33.803Z,98093.94
2018-07-06T01:35:13.454Z,98095.77
2018-07-06T01:37:53.124Z,98095.09
2018-07-06T01:40:32.955Z,98097.38
2018-07-06T01:43:12.899Z,98091.77
2018-07-06T01:45:52.531Z,98089.39
2018-07-06T01:48:32.473Z,98089.73
2018-07-06T01:51:12.101Z,98088.48
2018-07-06T01:53:51.789Z,98083.22
2018-07-06T01:56:31.584Z,98088.69
2018-07-06T01:59:11.301Z,98083.92
2018-07-06T02:01:51.345Z,98079.23
2018-07-06T02:04:31.135Z,98083.92
2018-07-06T02:07:11.061Z,98083.68
2018-07-06T02:09:50.955Z,98085.05
2018-07-06T02:12:30.781Z,98082.98
2018-07-06T02:15:10.654Z,98082.52
2018-07-06T02:17:50.419Z,98080.03
2018-07-06T02:20:30.301Z,98082.52
2018-07-06T02:23:10.069Z,98083.77
2018-07-06T02:25:49.864Z,98089.34
2018-07-06T02:28:29.554Z,98089.34
2018-07-06T02:31:09.349Z,98095.01
2018-07-06T02:33:49.255Z,98092.28
2018-07-06T02:36:29.126Z,98092.06
2018-07-06T02:39:08.727Z,98089.89
2018-07-06T02:41:48.539Z,98091.05
2018-07-06T02:44:28.271Z,98094.06
2018-07-06T02:47:08.751Z,98090.31
2018-07-06T02:49:49.512Z,98090.31
2018-07-06T02:52:29.322Z,98092.23
2018-07-06T02:55:09.085Z,98095.66
2018-07-06T02:57:49.505Z,98090.52
2018-07-06T03:00:29.422Z,98089.16
2018-07-06T03:03:09.110Z,98083.94
2018-07-06T03:05:49.152Z,98086.56
2018-07-06T03:08:29.212Z,98087.69
2018-07-06T03:11:09.007Z,98087.69
2018-07-06T03:13:48.760Z,98085.41
2018-07-06T03:16:28.586Z,98081.56
2018-07-06T03:19:08.595Z,98082.05
2018-07-06T03:21:48.429Z,98085.80
2018-07-06T03:24:28.794Z,98085.13
2018-07-06T03:27:08.762Z,98088.88
2018-07-06T03:29:48.641Z,98091.16
2018-07-06T03:32:28.494Z,98092.98
2018-07-06T03:35:08.107Z,98100.83
2018-07-06T03:37:47.752Z,98103.45
2018-07-06T03:40:27.626Z,98107.10
2018-07-06T03:43:07.467Z,98101.88
2018-07-06T03:45:47.391Z,98098.45
2018-07-06T03:48:28.529Z,98097.55
2018-07-06T03:51:09.116Z,98099.81
2018-07-06T03:53:49.385Z,98092.67
2018-07-06T03:56:29.230Z,98095.06
2018-07-06T03:59:09.050Z,98097.93
2018-07-06T04:01:49.131Z,98100.77
2018-07-06T04:04:28.968Z,98097.80
2018-07-06T04:07:09.057Z,98102.13
2018-07-06T04:09:48.806Z,98101.47
2018-07-06T04:12:28.756Z,98103.96
2018-07-06T04:15:08.836Z,98111.70
2018-07-06T04:17:48.699Z,98109.11
2018-07-06T04:20:28.669Z,98113.10
2018-07-06T04:23:08.266Z,98119.02
2018-07-06T04:25:48.016Z,98122.42
2018-07-06T04:28:27.742Z,98119.94
2018-07-06T04:31:07.433Z,98122.88
2018-07-06T04:33:47.455Z,98129.39
2018-07-06T04:36:27.750Z,98134.27
2018-07-06T04:39:07.445Z,98140.32
2018-07-06T04:41:47.306Z,98136.54
2018-07-06T04:44:27.322Z,98145.89
2018-07-06T04:47:07.240Z,98142.14
2018-07-06T04:49:46.990Z,98137.91
2018-07-06T04:52:26.816Z,98135.88
2018-07-06T04:55:06.490Z,98139.16
2018-07-06T04:57:46.187Z,98142.00
2018-07-06T05:00:26.036Z,98138.81
2018-07-06T05:03:06.017Z,98146.20
2018-07-06T05:05:45.866Z,98147.22
2018-07-06T05:08:25.942Z,98150.65
2018-07-06T05:11:05.690Z,98153.84
2018-07-06T05:13:45.674Z,98155.87
2018-07-06T05:16:25.380Z,98162.28
2018-07-06T05:19:05.040Z,98164.11
2018-07-06T05:21:44.910Z,98168.42
2018-07-06T05:24:24.786Z,98171.16
2018-07-06T05:27:04.543Z,98170.94
2018-07-06T05:29:44.760Z,98167.52
2018-07-06T05:32:24.513Z,98162.05
2018-07-06T05:35:04.231Z,98167.97
2018-07-06T05:37:44.329Z,98175.96
2018-07-06T05:40:23.992Z,98169.23
2018-07-06T05:43:03.868Z,98169.72
2018-07-06T05:45:43.437Z,98175.51
2018-07-06T05:48:23.154Z,98172.11
2018-07-06T05:51:03.018Z,98173.26
2018-07-06T05:53:43.222Z,98179.85
2018-07-06T05:56:23.051Z,98186.02
2018-07-06T05:59:03.016Z,98183.15
2018-07-06T06:01:42.732Z,98190.92
2018-07-06T06:04:22.870Z,98188.64
2018-07-06T06:07:02.472Z,98190.58
2018-07-06T06:09:31.216Z,98195.80
2018-07-06T06:11:59.863Z,98197.97
2018-07-06T06:14:28.618Z,98201.27
2018-07-06T06:16:57.991Z,98204.00
2018-07-06T06:19:26.928Z,98207.33
2018-07-06T06:21:56.196Z,98205.82
2018-07-06T06:24:24.868Z,98207.44
2018-07-06T06:26:53.649Z,98209.92
2018-07-06T06:29:22.517Z,98212.55
2018-07-06T06:31:51.287Z,98215.39
2018-07-06T06:34:20.058Z,98214.83
2018-07-06T06:36:48.928Z,98217.11
2018-07-06T06:39:17.888Z,98224.89
2018-07-06T06:41:46.492Z,98222.93
2018-07-06T06:44:15.302Z,98224.75
2018-07-06T06:46:44.526Z,98222.37
2018-07-06T06:49:13.266Z,98226.84
2018-07-06T06:51:42.287Z,98227.66
2018-07-06T06:54:11.177Z,98230.63
2018-07-06T06:56:40.128Z,98238.48
2018-07-06T06:59:09.054Z,98233.47
2018-07-06T07:01:37.958Z,98234.51
2018-07-06T07:04:06.727Z,98234.86
2018-07-06T07:06:35.393Z,98238.50
2018-07-06T07:09:05.260Z,98238.50
2018-07-06T07:11:34.853Z,98241.23
2018-07-06T07:14:03.623Z,98246.13
2018-07-06T07:16:32.306Z,98245.56
2018-07-06T07:19:01.167Z,98248.52
2018-07-06T07:21:29.958Z,98248.64
2018-07-06T07:23:59.645Z,98252.74
2018-07-06T07:26:28.302Z,98252.98
2018-07-06T07:28:57.449Z,98246.45
2018-07-06T07:31:26.523Z,98251.25
2018-07-06T07:33:55.891Z,98253.41
2018-07-06T07:36:24.711Z,98251.59
2018-07-06T07:38:53.498Z,98250.55
2018-07-06T07:41:22.223Z,98255.80
2018-07-06T07:43:50.952Z,98257.73
2018-07-06T07:46:20.032Z,98252.92
2018-07-06T07:48:48.845Z,98253.49
2018-07-06T07:52:27.693Z,98259.78
2018-07-06T07:54:56.854Z,98262.51
2018-07-06T07:57:25.477Z,98266.03
2018-07-06T07:59:55.463Z,98267.88
2018-07-06T08:02:24.832Z,98265.02
2018-07-06T08:04:54.265Z,98266.36
2018-07-06T08:07:22.933Z,98263.92
2018-07-06T08:09:51.642Z,98263.45
2018-07-06T08:12:20.352Z,98274.86
2018-07-06T08:14:49.309Z,98277.25
2018-07-06T08:17:17.977Z,98279.60
2018-07-06T08:19:46.828Z,98278.16
2018-07-06T08:22:16.034Z,98288.37
2018-07-06T08:24:45.334Z,98287.95
2018-07-06T08:27:13.922Z,98295.01
2018-07-06T08:29:43.377Z,98296.13
2018-07-06T08:32:12.268Z,98297.28
2018-07-06T08:34:52.223Z,98295.84
2018-07-06T08:37:36.433Z,98303.27
2018-07-06T08:40:05.300Z,98300.30
2018-07-06T08:42:35.442Z,98301.67
2018-07-06T08:45:04.914Z,98299.23
2018-07-06T08:47:33.941Z,98303.84
2018-07-06T08:50:03.974Z,98306.84
2018-07-06T08:52:32.684Z,98309.45
2018-07-06T08:55:01.678Z,98307.31
2018-07-06T08:57:31.475Z,98316.55
2018-07-06T09:00:00.114Z,98315.06
2018-07-06T09:02:29.213Z,98312.48
2018-07-06T09:04:58.855Z,98318.31
2018-07-06T09:07:27.761Z,98318.58
2018-07-06T09:09:57.368Z,98320.47
2018-07-06T09:12:26.126Z,98325.08
2018-07-06T09:14:55.164Z,98328.62
2018-07-06T09:17:24.365Z,98329.62
2018-07-06T09:19:54.096Z,98332.64
2018-07-06T09:22:23.481Z,98329.29
2018-07-06T09:24:53.508Z,98333.89
2018-07-06T09:27:22.338Z,98336.94
2018-07-06T09:29:50.904Z,98335.53
2018-07-06T09:32:19.584Z,98327.33
2018-07-06T09:34:49.527Z,98331.70
2018-07-06T09:37:18.273Z,98338.11
2018-07-06T09:39:47.743Z,98339.20
2018-07-06T09:42:17.150Z,98337.97
2018-07-06T09:44:46.069Z,98335.70
2018-07-06T09:47:15.162Z,98338.22
2018-07-06T09:49:43.824Z,98337.23
2018-07-06T09:52:12.752Z,98343.55
2018-07-06T09:54:41.488Z,98341.27
2018-07-06T09:57:11.158Z,98340.86
2018-07-06T09:59:39.786Z,98338.86
2018-07-06T10:02:08.692Z,98338.33
2018-07-06T10:04:37.574Z,98338.72
2018-07-06T10:07:06.292Z,98339.96
2018-07-06T10:09:35.092Z,98340.80
2018-07-06T10:12:03.865Z,98340.31
2018-07-06T10:14:32.967Z,98345.92
2018-07-06T10:17:02.339Z,98343.45
2018-07-06T10:19:32.341Z,98341.83
2018-07-06T10:22:00.884Z,98340.11
2018-07-06T10:24:29.666Z,98340.35
2018-07-06T10:26:58.613Z,98342.27
2018-07-06T10:29:39.174Z,98344.33
2018-07-06T10:32:27.377Z,98340.48
2018-07-06T10:34:56.455Z,98343.29
2018-07-06T10:37:25.503Z,98342.80
2018-07-06T10:39:54.559Z,98337.36
2018-07-06T10:42:23.076Z,98344.72
2018-07-06T10:44:51.750Z,98342.70
2018-07-06T10:47:20.914Z,98337.03
2018-07-06T10:49:49.779Z,98336.77
2018-07-06T10:52:18.634Z,98329.39
2018-07-06T10:54:47.738Z,98335.17
2018-07-06T10:57:16.585Z,98333.40
2018-07-06T10:59:45.423Z,98337.80
2018-07-06T11:02:14.779Z,98343.25
2018-07-06T11:04:43.560Z,98338.88
2018-07-06T11:07:12.141Z,98345.88
2018-07-06T11:09:41.084Z,98349.03
2018-07-06T11:12:09.938Z,98339.84
2018-07-06T11:14:38.658Z,98343.46
2018-07-06T11:17:07.425Z,98339.07
2018-07-06T11:19:36.080Z,98343.22
2018-07-06T11:22:04.854Z,98339.70
2018-07-06T11:24:33.458Z,98340.92
2018-07-06T11:27:02.075Z,98347.46
2018-07-06T11:29:30.748Z,98344.45
2018-07-06T11:31:59.574Z,98340.08
2018-07-06T11:34:28.380Z,98332.94
2018-07-06T11:36:57.944Z,98332.13
2018-07-06T11:39:26.538Z,98330.96
2018-07-06T11:41:55.263Z,98335.50
2018-07-06T11:44:23.980Z,98329.69
2018-07-06T11:46:52.647Z,98335.16
2018-07-06T11:49:21.267Z,98340.33
2018-07-06T11:51:49.980Z,98341.97
2018-07-06T11:54:18.579Z,98340.06
2018-07-06T11:56:47.167Z,98338.39
2018-07-06T11:59:16.760Z,98339.51
2018-07-06T12:01:46.323Z,98338.82
2018-07-06T12:04:15.248Z,98340.73
2018-07-06T12:06:44.554Z,98347.18
2018-07-06T12:09:13.319Z,98340.47
2018-07-06T12:11:42.309Z,98333.87
2018-07-06T12:14:11.173Z,98339.95
2018-07-06T12:16:39.985Z,98334.55
2018-07-06T12:19:08.693Z,98336.29
2018-07-06T12:21:37.406Z,98348.78
2018-07-06T12:24:06.986Z,98365.58
2018-07-06T12:26:35.793Z,98365.30
2018-07-06T12:29:04.568Z,98358.06
2018-07-06T12:31:34.014Z,98355.39
2018-07-06T12:34:02.879Z,98355.80
2018-07-06T12:36:31.746Z,98359.95
2018-07-06T12:39:00.644Z,98351.47
2018-07-06T12:41:29.313Z,98350.97
2018-07-06T12:43:57.942Z,98354.28
2018-07-06T12:46:26.550Z,98359.80
2018-07-06T12:48:55.305Z,98353.75
2018-07-06T12:51:24.374Z,98350.59
2018-07-06T12:53:53.039Z,98349.38
2018-07-06T12:56:21.899Z,98349.04
2018-07-06T12:58:51.524Z,98349.59
2018-07-06T13:01:20.445Z,98343.58
2018-07-06T13:03:49.329Z,98339.30
2018-07-06T13:06:18.175Z,98343.69
2018-07-06T13:08:47.014Z,98345.66
2018-07-06T13:11:16.408Z,98345.91
2018-07-06T13:13:45.186Z,98346.91
2018-07-06T13:16:14.141Z,98352.19
2018-07-06T13:18:43.080Z,98350.67
2018-07-06T13:21:11.846Z,98355.64
2018-07-06T13:23:40.647Z,98350.89
2018-07-06T13:26:09.384Z,98355.70
2018-07-06T13:28:38.775Z,98361.25
2018-07-06T13:31:08.449Z,98354.59
2018-07-06T13:33:37.096Z,98356.38
2018-07-06T13:36:05.921Z,98349.81
2018-07-06T13:38:34.915Z,98349.22
2018-07-06T13:41:04.185Z,98354.41
2018-07-06T13:43:33.290Z,98352.20
2018-07-06T13:46:02.272Z,98351.55
2018-07-06T13:48:31.540Z,98344.01
2018-07-06T13:51:00.968Z,98347.42
2018-07-06T13:53:29.626Z,98346.24
2018-07-06T13:55:58.430Z,98344.70
2018-07-06T13:58:27.263Z,98346.08
2018-07-06T14:00:55.947Z,98350.45
2018-07-06T14:03:24.631Z,98353.17
2018-07-06T14:05:53.232Z,98344.09
2018-07-06T14:08:21.874Z,98354.55
2018-07-06T14:10:50.601Z,98353.42
2018-07-06T14:13:19.220Z,98347.65
2018-07-06T14:15:48.645Z,98338.52
2018-07-06T14:18:17.556Z,98336.72
2018-07-06T14:20:46.258Z,98338.91
2018-07-06T14:23:15.025Z,98337.95
2018-07-06T14:25:43.771Z,98337.14
2018-07-06T14:28:12.537Z,98336.56
2018-07-06T14:30:41.705Z,98331.00
2018-07-06T14:33:10.818Z,98329.92
2018-07-06T14:35:40.435Z,98337.34
2018-07-06T14:38:09.423Z,98335.56
2018-07-06T14:40:38.180Z,98328.11
2018-07-06T14:43:07.015Z,98332.31
2018-07-06T14:45:35.835Z,98329.92
2018-07-06T14:48:04.819Z,98332.28
2018-07-06T14:50:33.525Z,98327.18
2018-07-06T14:53:02.131Z,98333.03
2018-07-06T14:55:30.850Z,98331.30
2018-07-06T14:57:59.950Z,98329.36
2018-07-06T15:00:28.711Z,98322.06
2018-07-06T15:02:57.650Z,98326.98
2018-07-06T15:05:27.497Z,98325.19
2018-07-06T15:07:56.185Z,98329.69
2018-07-06T15:10:24.949Z,98324.37
2018-07-06T15:12:53.769Z,98329.23
2018-07-06T15:15:22.597Z,98328.78
2018-07-06T15:17:51.242Z,98323.97
2018-07-06T15:20:19.972Z,98322.65
2018-07-06T15:22:48.566Z,98320.11
2018-07-06T15:25:17.268Z,98325.06
2018-07-06T15:27:46.000Z,98323.56
2018-07-06T15:30:15.240Z,98323.92
2018-07-06T15:32:44.198Z,98323.92
2018-07-06T15:35:13.084Z,98321.27
2018-07-06T15:37:41.712Z,98321.94
2018-07-06T15:40:10.358Z,98324.31
2018-07-06T15:42:39.130Z,98329.03
2018-07-06T15:45:08.014Z,98327.42
2018-07-06T15:47:36.762Z,98324.99
2018-07-06T15:50:05.340Z,98326.70
2018-07-06T15:52:33.961Z,98332.97
2018-07-06T15:55:03.565Z,98327.39
2018-07-06T15:57:32.288Z,98328.22
2018-07-06T16:00:01.034Z,98324.84
2018-07-06T16:02:29.650Z,98324.91
2018-07-06T16:04:58.340Z,98324.91
2018-07-06T16:07:27.035Z,98317.19
2018-07-06T16:09:55.650Z,98323.92
2018-07-06T16:12:24.405Z,98325.45
2018-07-06T16:14:53.059Z,98321.21
2018-07-06T16:17:21.843Z,98320.70
2018-07-06T16:19:50.514Z,98313.58
2018-07-06T16:22:19.123Z,98309.59
2018-07-06T16:24:48.633Z,98311.83
2018-07-06T16:27:18.772Z,98312.05
2018-07-06T16:29:47.560Z,98310.14
2018-07-06T16:32:16.386Z,98309.75
2018-07-06T16:34:45.031Z,98292.86
2018-07-06T16:37:13.778Z,98308.75
2018-07-06T16:39:42.454Z,98315.45
2018-07-06T16:42:11.040Z,98315.34
2018-07-06T16:44:39.662Z,98314.89
2018-07-06T16:47:08.986Z,98319.78
2018-07-06T16:49:37.570Z,98323.80
2018-07-06T16:52:06.281Z,98338.97
2018-07-06T16:54:35.180Z,98341.44
2018-07-06T16:57:03.916Z,98351.41
2018-07-06T16:59:32.700Z,98347.57
2018-07-06T17:02:01.469Z,98353.06
2018-07-06T17:04:30.319Z,98356.88
2018-07-06T17:06:59.424Z,98360.74
2018-07-06T17:09:28.210Z,98366.77
2018-07-06T17:11:56.966Z,98380.34
2018-07-06T17:14:25.822Z,98382.58
2018-07-06T17:16:54.592Z,98387.44
2018-07-06T17:19:23.495Z,98392.66
2018-07-06T17:21:52.243Z,98400.23
2018-07-06T17:24:21.061Z,98408.52
2018-07-06T17:26:49.678Z,98404.47
2018-07-06T17:29:18.400Z,98400.09
2018-07-06T17:31:46.980Z,98397.94
2018-07-06T17:34:15.840Z,98394.81
2018-07-06T17:36:44.904Z,98398.88
2018-07-06T17:39:13.590Z,98405.75
2018-07-06T17:41:42.280Z,98402.98
2018-07-06T17:44:10.870Z,98413.77
2018-07-06T17:46:39.551Z,98414.39
2018-07-06T17:49:08.287Z,98413.86
2018-07-06T17:51:37.049Z,98405.19
2018-07-06T17:54:05.761Z,98410.00
2018-07-06T17:56:34.880Z,98401.36
2018-07-06T17:59:03.685Z,98411.14
2018-07-06T18:01:32.416Z,98407.06
2018-07-06T18:04:01.065Z,98408.18
2018-07-06T18:06:29.931Z,98417.88
2018-07-06T18:08:58.795Z,98414.14
2018-07-06T18:11:27.516Z,98414.54
2018-07-06T18:13:56.720Z,98411.69
2018-07-06T18:16:26.581Z,98404.71
2018-07-06T18:18:55.400Z,98398.36
2018-07-06T18:21:24.110Z,98398.68
2018-07-06T18:23:52.776Z,98402.21
2018-07-06T18:26:21.587Z,98402.36
2018-07-06T18:28:50.836Z,98402.95
2018-07-06T18:31:20.491Z,98400.93
2018-07-06T18:33:49.866Z,98408.95
2018-07-06T18:36:18.577Z,98409.84
2018-07-06T18:38:47.386Z,98406.92
2018-07-06T18:41:16.436Z,98411.67
2018-07-06T18:43:45.379Z,98418.88
2018-07-06T18:46:14.206Z,98414.57
2018-07-06T18:48:42.895Z,98418.00
2018-07-06T18:51:11.807Z,98438.19
2018-07-06T18:53:40.753Z,98437.49
2018-07-06T18:56:09.747Z,98433.42
2018-07-06T18:58:38.883Z,98432.97
2018-07-06T19:01:07.961Z,98437.11
2018-07-06T19:03:36.883Z,98437.83
2018-07-06T19:06:06.039Z,98443.84
2018-07-06T19:08:35.477Z,98445.95
2018-07-06T19:11:04.316Z,98446.30
2018-07-06T19:13:33.250Z,98451.53
2018-07-06T19:16:02.286Z,98452.13
2018-07-06T19:18:31.412Z,98448.82
2018-07-06T19:21:00.636Z,98463.13
2018-07-06T19:23:29.767Z,98469.41
2018-07-06T19:25:58.873Z,98470.09
2018-07-06T19:28:27.545Z,98476.28
2018-07-06T19:30:56.820Z,98480.16
2018-07-06T19:33:25.790Z,98483.59
2018-07-06T19:35:54.569Z,98486.55
2018-07-06T19:38:23.643Z,98479.70
2018-07-06T19:40:52.877Z,98491.34
2018-07-06T19:43:22.491Z,98492.26
2018-07-06T19:45:51.398Z,98497.84
2018-07-06T19:48:20.230Z,98503.47
2018-07-06T19:50:48.932Z,98504.59
2018-07-06T19:53:18.064Z,98510.53
2018-07-06T19:55:47.232Z,98509.64
2018-07-06T19:58:16.434Z,98512.96
2018-07-06T20:00:45.827Z,98516.04
2018-07-06T20:03:14.781Z,98512.17
2018-07-06T20:05:44.016Z,98515.15
2018-07-06T20:08:18.153Z,98525.66
2018-07-06T20:10:51.623Z,98525.87
2018-07-06T20:13:20.445Z,98521.76
2018-07-06T20:15:49.491Z,98533.39
2018-07-06T20:18:18.500Z,98530.55
2018-07-06T20:20:47.448Z,98531.42
2018-07-06T20:23:16.122Z,98533.00
2018-07-06T20:25:45.005Z,98538.23
2018-07-06T20:28:13.608Z,98547.80
2018-07-06T20:30:42.786Z,98549.38
2018-07-06T20:33:11.657Z,98555.62
2018-07-06T20:35:40.403Z,98554.44
2018-07-06T20:38:09.575Z,98559.22
2018-07-06T20:40:38.817Z,98566.42
2018-07-06T20:43:07.561Z,98567.25
2018-07-06T20:45:37.216Z,98576.80
2018-07-06T20:48:06.061Z,98583.27
2018-07-06T20:50:34.931Z,98580.49
2018-07-06T20:53:03.623Z,98580.86
2018-07-06T20:55:32.516Z,98584.45
2018-07-06T20:58:01.305Z,98586.53
2018-07-06T21:00:30.585Z,98588.08
2018-07-06T21:02:59.364Z,98587.10
2018-07-06T21:05:28.440Z,98593.64
2018-07-06T21:07:57.402Z,98596.07
2018-07-06T21:10:26.437Z,98591.67
2018-07-06T21:12:55.791Z,98592.02
2018-07-06T21:15:25.146Z,98598.92
2018-07-06T21:17:53.828Z,98591.63
2018-07-06T21:20:23.371Z,98592.13
2018-07-06T21:22:52.421Z,98597.59
2018-07-06T21:25:22.084Z,98591.61
2018-07-06T21:27:51.956Z,98597.73
2018-07-06T21:30:21.178Z,98600.80
2018-07-06T21:32:49.954Z,98599.42
2018-07-06T21:35:18.644Z,98604.16
2018-07-06T21:37:47.349Z,98610.03
2018-07-06T21:40:16.089Z,98608.69
2018-07-06T21:42:45.294Z,98607.00
2018-07-06T21:45:14.812Z,98612.53
2018-07-06T21:47:44.709Z,98610.84
2018-07-06T21:50:14.278Z,98613.77
2018-07-06T21:52:43.201Z,98627.56
2018-07-06T21:55:12.136Z,98615.20
2018-07-06T21:57:40.856Z,98618.02
2018-07-06T22:00:10.880Z,98618.71
2018-07-06T22:02:39.736Z,98624.16
2018-07-06T22:05:09.318Z,98621.77
2018-07-06T22:07:38.568Z,98626.00
2018-07-06T22:10:08.038Z,98623.59
2018-07-06T22:12:36.709Z,98619.66
2018-07-06T22:15:05.567Z,98626.87
2018-07-06T22:17:34.362Z,98632.09
2018-07-06T22:20:03.133Z,98630.55
2018-07-06T22:22:31.930Z,98631.05
2018-07-06T22:25:01.381Z,98637.70
2018-07-06T22:27:30.287Z,98631.22
2018-07-06T22:29:58.992Z,98640.34
2018-07-06T22:32:27.788Z,98637.98
2018-07-06T22:34:56.388Z,98637.33
2018-07-06T22:37:25.133Z,98634.45
2018-07-06T22:39:53.971Z,98639.16
2018-07-06T22:42:22.618Z,98641.13
2018-07-06T22:44:51.227Z,98639.88
2018-07-06T22:47:20.042Z,98652.26
2018-07-06T22:49:48.661Z,98639.58
2018-07-06T22:52:17.322Z,98643.17
2018-07-06T22:54:46.097Z,98643.08
2018-07-06T22:57:15.064Z,98635.03
2018-07-06T22:59:44.527Z,98638.38
2018-07-06T23:02:13.171Z,98633.56
2018-07-06T23:04:41.937Z,98636.58
2018-07-06T23:07:10.614Z,98641.92
2018-07-06T23:09:39.415Z,98645.29
2018-07-06T23:12:08.122Z,98638.28
2018-07-06T23:14:36.808Z,98639.16
2018-07-06T23:17:05.988Z,98637.05
2018-07-06T23:19:35.292Z,98640.15
2018-07-06T23:22:04.067Z,98638.78
2018-07-06T23:24:32.792Z,98640.79
2018-07-06T23:27:01.452Z,98640.04
2018-07-06T23:29:30.043Z,98642.53
2018-07-06T23:31:59.594Z,98645.60
2018-07-06T23:34:28.658Z,98647.17
2018-07-06T23:36:57.326Z,98646.97
2018-07-06T23:39:26.072Z,98650.06
2018-07-06T23:41:54.828Z,98642.97
2018-07-06T23:44:23.541Z,98653.19
2018-07-06T23:46:52.382Z,98646.96
2018-07-06T23:49:21.233Z,98654.92
2018-07-06T23:51:50.022Z,98646.20
2018-07-06T23:54:18.843Z,98645.22
2018-07-06T23:56:47.747Z,98644.78
2018-07-06T23:59:17.033Z,98640.77
